Monday, October 16, 2017, 6:04 PM EDT
Back to Local

KMSV, Monticello, Sullivan County International Airport

Location: Swan Lake, NY, United States Lat: 41.7
Local Time: 6:04 PM EDT (22:04 GMT) Lon: -74.8
Time Zone: US/Eastern Elev: 1404 ft

Show me the last for .
Show Decoded

2017-10-16 16:56 METAR KMSV 162056Z AUTO 32012G21KT 10SM BKN034 BKN048 08/02 A3010 RMK AO2 SLP197
                 T00830017 53014 =
2017-10-16 15:56 METAR KMSV 161956Z AUTO 30014G19KT 10SM FEW043 09/02 A3008 RMK AO2 SLP188
                 T00890022 =
2017-10-16 14:56 METAR KMSV 161856Z AUTO 32018G23KT 10SM FEW034 10/02 A3005 RMK AO2 SLP180
                 T01000017 =
2017-10-16 14:26 METAR KMSV 161826Z AUTO 33014G19KT 10SM BKN030 09/02 A3005 RMK AO2 =
2017-10-16 13:56 METAR KMSV 161756Z AUTO 32014G21KT 10SM OVC026 08/03 A3006 RMK AO2 SLP181 60000
                 T00830028 10094 20072 51001 =
2017-10-16 12:56 METAR KMSV 161656Z AUTO 31014G19KT 10SM OVC026 09/03 A3006 RMK AO2 SLP180
                 T00890028 =
2017-10-16 11:56 METAR KMSV 161556Z AUTO 34012G24KT 10SM BKN026 09/03 A3007 RMK AO2 PK WND
                 31026/1502 SLP186 T00890028 =
2017-10-16 10:56 METAR KMSV 161456Z AUTO 32011G23KT 10SM OVC024 08/03 A3005 RMK AO2 SLP179 60000
                 T00830033 51019 =
2017-10-16 09:56 METAR KMSV 161356Z AUTO 33016G28KT 10SM OVC022 08/03 A3005 RMK AO2 PK WND
                 33028/1350 SLP176 T00780028 =
2017-10-16 08:56 METAR KMSV 161256Z AUTO 32010G19KT 10SM OVC018 07/04 A3003 RMK AO2 RAB22E55
                 SLP171 P0000 T00720044 =
2017-10-16 07:56 METAR KMSV 161156Z AUTO 30009G17KT 10SM OVC024 08/04 A2999 RMK AO2 SLP158 60000
                 70010 T00780039 10139 20078 51023 =
2017-10-16 07:08 METAR KMSV 161108Z AUTO 29008KT 10SM BKN026 08/03 A2998 RMK AO2 =
2017-10-16 06:56 METAR KMSV 161056Z AUTO 31014G22KT 10SM SCT026 08/03 A2997 RMK AO2 SLP151
                 T00830033 =
2017-10-16 06:30 METAR KMSV 161030Z AUTO 32012G19KT 10SM SCT022 08/04 A2996 RMK AO2 =
2017-10-16 06:04 METAR KMSV 161004Z AUTO 31007KT 10SM BKN022 08/05 A2995 RMK AO2 =
2017-10-16 05:56 METAR KMSV 160956Z AUTO 31007G15KT 10SM SCT022 09/05 A2995 RMK AO2 PK WND
                 33028/0925 SLP143 T00890050 =
2017-10-16 05:30 METAR KMSV 160930Z AUTO 31012G28KT 10SM SCT023 09/05 A2993 RMK AO2 PK WND
                 33028/0925 =
2017-10-16 04:56 METAR KMSV 160856Z AUTO 31010G17KT 10SM BKN023 11/07 A2992 RMK AO2 SLP132 60000
                 T01060072 53015 =
2017-10-16 04:31 METAR KMSV 160831Z AUTO 31013G19KT 10SM BKN025 11/08 A2991 RMK AO2 =
2017-10-16 03:56 METAR KMSV 160756Z AUTO 29011G19KT 10SM SCT110 12/08 A2990 RMK AO2 SLP124
                 T01170083 =
2017-10-16 02:56 METAR KMSV 160656Z AUTO 30008G16KT 10SM BKN038 BKN110 12/09 A2989 RMK AO2
                 RAB20E36 SLP120 P0000 T01220094 =
2017-10-16 02:14 METAR KMSV 160614Z AUTO 31009G17KT 10SM FEW010 BKN016 OVC110 14/12 A2988 RMK AO2
                 =
2017-10-16 01:56 METAR KMSV 160556Z AUTO 27007KT 10SM BKN110 13/13 A2988 RMK AO2 RAE45 SLP113
                 P0000 60010 T01330128 10178 20133 51018 =
2017-10-16 00:56 METAR KMSV 160456Z AUTO 27008KT 10SM -RA BKN110 13/12 A2985 RMK AO2 SLP105 P0001
                 T01330122 402060122 =
2017-10-15 23:56 METAR KMSV 160356Z AUTO 29007KT 10SM -RA FEW009 BKN040 OVC050 14/13 A2986 RMK
                 AO2 PK WND 31027/0309 WSHFT 0300 SLP109 P0008 T01390128 =
2017-10-15 23:39 METAR KMSV 160339Z AUTO 31009G22KT 9SM -RA SCT009 BKN030 OVC049 14/13 A2986 RMK
                 AO2 PK WND 31027/0309 WSHFT 0300 P0008 =
2017-10-15 23:14 METAR KMSV 160314Z AUTO 32019G27KT 5SM RA BR SCT007 BKN015 OVC044 16/14 A2985
                 RMK AO2 PK WND 31027/0309 WSHFT 0300 PRESRR P0006 =
2017-10-15 23:03 METAR KMSV 160303Z AUTO 27012G18KT 5SM RA BR FEW011 BKN029 OVC047 17/16 A2983
                 RMK AO2 P0002 =
2017-10-15 22:56 METAR KMSV 160256Z AUTO 26012G16KT 5SM -RA BR SCT011 BKN032 OVC048 17/16 A2982
                 RMK AO2 RAB32 SLP095 P0001 60001 T01720161 55000 =
2017-10-15 22:05 METAR KMSV 160205Z AUTO 22007KT 10SM OVC011 18/16 A2980 RMK AO2 =
2017-10-15 21:56 METAR KMSV 160156Z AUTO VRB06G16KT 10SM OVC009 18/16 A2981 RMK AO2 SLP089
                 T01780156 =
2017-10-15 20:56 METAR KMSV 160056Z AUTO 20008KT 10SM OVC009 17/16 A2980 RMK AO2 SLP088 T01720156
                 TSNO =
2017-10-15 19:56 METAR KMSV 152356Z AUTO 21006KT 10SM OVC009 17/16 A2982 RMK AO2 SLP097 T01720156
                 10206 20172 56006 =
2017-10-15 19:52 METAR KMSV 152352Z AUTO 19007KT 10SM OVC009 17/16 A2982 RMK AO2 =
2017-10-15 18:56 METAR KMSV 152256Z AUTO 20011KT 10SM OVC011 17/16 A2982 RMK AO2 SLP097 T01720156
                 =

Support USWX by starting your Amazon purchase here.